Positano Jet — IFTU — position and weather

sailwx.info

Track history (hours):
 
Tides and Currents Weather Stations Pressure Air Temp Water Temp Dewpoint Dewpoint Depression Visibility Wind Speed Wind Dir Waves Ship Positions

Positano Jet

Last reported at 2018-Apr-22 16:34 UTC. Time now 2018-Apr-22 22:12 UTC.
Position N 40°37' E 014°29'.

Length 23 m; draft 2 m.

Type: Ship. MMSI: 247160800.

Date/timePositionNaut miles runAvg speedWind from/ knotsBaromVisibWave heightAir tempDewpointWater temp
2018-Apr-22 16:34N 40°37' E 014°29'222.7
2018-Apr-22 16:30N 40°36' E 014°27'1013.1
2018-Apr-22 15:45N 40°34' E 014°15'520.4
2018-Apr-22 15:30N 40°34' E 014°22'7 9.8
2018-Apr-22 14:49N 40°37' E 014°29'0 0.0
2018-Apr-22 14:24N 40°37' E 014°29'0 0.3
2018-Apr-22 13:50N 40°37' E 014°29'12 9.8
2018-Apr-22 12:37N 40°33' E 014°14'216.0
2018-Apr-22 12:30N 40°34' E 014°17'1014.0
2018-Apr-22 11:47N 40°37' E 014°29'0 0.0
2018-Apr-22 11:20N 40°37' E 014°29'0 0.0
2018-Apr-22 11:00N 40°37' E 014°29'0 0.0
2018-Apr-22 10:26N 40°37' E 014°29'0 0.3
2018-Apr-22 09:51N 40°37' E 014°29'1122.5
2018-Apr-22 09:22N 40°34' E 014°15'0 1.2
2018-Apr-22 09:00N 40°34' E 014°16'1110.0
2018-Apr-22 07:55N 40°37' E 014°29'0 0.0
2018-Apr-22 07:28N 40°37' E 014°29'1 1.3
2018-Apr-22 07:00N 40°37' E 014°30'1 0.0
2018-Apr-21 16:35N 40°37' E 014°29'222.9
2018-Apr-21 16:31N 40°36' E 014°27'910.5
2018-Apr-21 15:38N 40°34' E 014°16'520.6
2018-Apr-21 15:25N 40°34' E 014°22'715.4
2018-Apr-21 14:59N 40°38' E 014°29'0 0.6
2018-Apr-21 14:30N 40°37' E 014°29'0 0.3
2018-Apr-21 13:49N 40°38' E 014°29'721.4
2018-Apr-21 13:30N 40°34' E 014°21'5 5.6
2018-Apr-21 12:36N 40°34' E 014°15'522.7
2018-Apr-21 12:24N 40°34' E 014°21'712.3
2018-Apr-21 11:49N 40°37' E 014°29'0 0.0
2018-Apr-21 11:27N 40°37' E 014°29'0 0.0
2018-Apr-21 10:59N 40°37' E 014°29'0 0.0
2018-Apr-21 10:29N 40°37' E 014°29'0 0.5
2018-Apr-21 09:51N 40°37' E 014°29'1112.6
2018-Apr-21 09:01N 40°34' E 014°16'022.6
2018-Apr-21 09:00N 40°34' E 014°16'1112.0
2018-Apr-21 08:07N 40°37' E 014°29'0 0.0
2018-Apr-21 07:55N 40°37' E 014°29'0 0.0
2018-Apr-20 16:35N 40°37' E 014°29'121.1
2018-Apr-20 16:30N 40°36' E 014°28'1011.9
2018-Apr-20 15:39N 40°33' E 014°15'518.9
2018-Apr-20 15:24N 40°34' E 014°21'712.8
2018-Apr-20 14:50N 40°37' E 014°29'0 0.0
2018-Apr-20 14:20N 40°37' E 014°29'0 0.2
2018-Apr-20 13:53N 40°37' E 014°29'12 9.2
2018-Apr-20 12:36N 40°33' E 014°15'217.6
2018-Apr-20 12:31N 40°34' E 014°17'1015.8
2018-Apr-20 11:52N 40°37' E 014°29'3 1.7
2018-Apr-20 10:10N 40°36' E 014°33'310.8
2018-Apr-20 09:53N 40°37' E 014°29'1113.5
2018-Apr-20 09:05N 40°34' E 014°15'423.2
2018-Apr-20 08:54N 40°34' E 014°21'7 8.8
2018-Apr-20 08:05N 40°37' E 014°29'0 0.0
2018-Apr-20 07:52N 40°37' E 014°29'0 0.0
2018-Apr-20 07:29N 40°37' E 014°29'0 0.0
2018-Apr-19 16:45N 40°37' E 014°29'2 7.2
2018-Apr-19 16:30N 40°36' E 014°27'1013.3
2018-Apr-19 15:44N 40°33' E 014°14'619.6
2018-Apr-19 15:27N 40°34' E 014°22'711.6
2018-Apr-19 14:53N 40°37' E 014°29'0 0.0
2018-Apr-19 14:30N 40°37' E 014°29'0 0.4
2018-Apr-19 13:52N 40°37' E 014°29'1022.4
2018-Apr-19 13:25N 40°34' E 014°16'2 3.9
2018-Apr-19 13:00N 40°33' E 014°14'2 3.4
2018-Apr-19 12:30N 40°34' E 014°17'10 4.9
2018-Apr-19 10:24N 40°37' E 014°29'0 0.5
2018-Apr-19 09:53N 40°37' E 014°29'1122.6
2018-Apr-19 09:23N 40°34' E 014°15'4 8.5
2018-Apr-19 08:53N 40°34' E 014°21'7 5.3
2018-Apr-19 07:28N 40°37' E 014°29'0 0.0
2018-Apr-18 16:53N 40°37' E 014°29'2 4.9
2018-Apr-18 16:30N 40°36' E 014°27'1015.8
2018-Apr-18 15:51N 40°33' E 014°14'719.5
2018-Apr-18 15:30N 40°35' E 014°23'5 7.2
2018-Apr-18 14:46N 40°37' E 014°29'0 0.0
2018-Apr-18 14:30N 40°37' E 014°29'0 0.0
2018-Apr-18 14:00N 40°37' E 014°29'612.3
2018-Apr-18 13:31N 40°34' E 014°22'610.2
2018-Apr-18 12:55N 40°33' E 014°14'1 3.6
2018-Apr-18 12:31N 40°34' E 014°16'1114.2
2018-Apr-18 11:46N 40°37' E 014°29'0 0.0
2018-Apr-18 11:18N 40°37' E 014°29'0 0.0
2018-Apr-18 10:57N 40°37' E 014°29'0 0.0
2018-Apr-18 10:30N 40°37' E 014°29'0 0.3
2018-Apr-18 09:50N 40°37' E 014°29'1122.3
2018-Apr-18 09:20N 40°34' E 014°15'510.4
2018-Apr-18 08:51N 40°34' E 014°21'7 7.3
2018-Apr-18 07:55N 40°37' E 014°29'0 0.0
2018-Apr-17 16:47N 40°37' E 014°29'2 7.1
2018-Apr-17 16:31N 40°36' E 014°27'1017.1
2018-Apr-17 15:55N 40°33' E 014°14'512.6
2018-Apr-17 15:30N 40°34' E 014°21'711.3
2018-Apr-17 14:53N 40°37' E 014°29'0 0.0
2018-Apr-17 14:30N 40°37' E 014°29'0 0.3
2018-Apr-17 13:51N 40°37' E 014°29'1021.8
2018-Apr-17 13:24N 40°34' E 014°17'2 3.0
2018-Apr-17 12:41N 40°33' E 014°14'210.0
2018-Apr-17 12:30N 40°34' E 014°17'1016.2
2018-Apr-17 11:53N 40°37' E 014°29'3 1.7
2018-Apr-17 10:15N 40°36' E 014°33'3 9.1
2018-Apr-17 09:56N 40°37' E 014°29'1122.4
2018-Apr-17 09:26N 40°34' E 014°15'4 7.9
2018-Apr-17 08:55N 40°34' E 014°21'7 9.7
2018-Apr-17 08:09N 40°37' E 014°29'0 0.0
2018-Apr-17 07:55N 40°37' E 014°29'0 0.0
2018-Apr-17 07:30N 40°37' E 014°29'0 0.0
2018-Apr-16 16:34N 40°37' E 014°29'123.2
2018-Apr-16 16:30N 40°36' E 014°28'1013.7
2018-Apr-16 15:45N 40°33' E 014°14'516.6
2018-Apr-16 15:26N 40°34' E 014°21'7 5.0
2018-Apr-16 14:01N 40°37' E 014°29'0 0.7
2018-Apr-16 14:00N 40°37' E 014°29'613.0
2018-Apr-16 13:30N 40°34' E 014°22'5 5.0
2018-Apr-16 12:32N 40°34' E 014°15'123.8
2018-Apr-16 12:30N 40°34' E 014°17'1016.6
2018-Apr-16 11:53N 40°37' E 014°29'0 0.0
2018-Apr-16 11:30N 40°37' E 014°29'0 0.0
2018-Apr-16 10:58N 40°37' E 014°29'0 0.0
2018-Apr-16 10:22N 40°37' E 014°29'0 0.4
2018-Apr-16 09:50N 40°37' E 014°29'722.6
2018-Apr-16 09:30N 40°34' E 014°21'4 7.9
2018-Apr-16 09:00N 40°34' E 014°15'1122.8
2018-Apr-16 08:30N 40°37' E 014°29'0 0.4
2018-Apr-16 07:59N 40°37' E 014°29'0 0.0
2018-Apr-15 16:46N 40°37' E 014°29'2 6.2
2018-Apr-15 16:31N 40°36' E 014°28'1117.0
2018-Apr-15 15:53N 40°33' E 014°14'510.7
2018-Apr-15 15:26N 40°34' E 014°21'713.5
2018-Apr-15 14:54N 40°37' E 014°29'0 0.0
2018-Apr-15 14:30N 40°37' E 014°29'0 0.0
2018-Apr-15 14:00N 40°37' E 014°29'612.7
2018-Apr-15 13:31N 40°34' E 014°22'6 6.8
2018-Apr-15 12:38N 40°33' E 014°14'215.9
2018-Apr-15 12:30N 40°34' E 014°17'1014.8
2018-Apr-15 11:50N 40°37' E 014°29'0 0.0
2018-Apr-15 11:30N 40°37' E 014°29'0 0.0
2018-Apr-15 10:59N 40°37' E 014°29'0 0.0
2018-Apr-15 10:30N 40°37' E 014°29'0 0.3
2018-Apr-15 09:51N 40°37' E 014°29'1122.1
2018-Apr-15 09:22N 40°34' E 014°16'0 0.8
2018-Apr-15 09:00N 40°34' E 014°16'1113.3
2018-Apr-15 08:13N 40°37' E 014°29'0 0.1
2018-Apr-15 08:00N 40°37' E 014°29'0 0.0
2018-Apr-14 16:46N 40°37' E 014°29'2 6.6
2018-Apr-14 16:31N 40°36' E 014°27'1020.5
2018-Apr-14 16:00N 40°33' E 014°14'5 8.9
2018-Apr-14 15:28N 40°34' E 014°21'711.4
2018-Apr-14 14:49N 40°37' E 014°29'0 0.0
2018-Apr-14 14:29N 40°37' E 014°29'0 0.0
2018-Apr-14 14:00N 40°37' E 014°29'611.8
2018-Apr-14 13:31N 40°34' E 014°23'610.0
2018-Apr-14 12:52N 40°33' E 014°14'2 6.3
2018-Apr-14 12:31N 40°34' E 014°17'1015.5
2018-Apr-14 11:53N 40°37' E 014°29'1 0.3
2018-Apr-14 09:48N 40°37' E 014°29'1117.2
2018-Apr-14 09:08N 40°33' E 014°14'620.7
2018-Apr-14 08:51N 40°34' E 014°22'6 0.3
2018-Apr-13 16:33N 40°37' E 014°28'123.3
2018-Apr-13 16:30N 40°36' E 014°28'1012.8
2018-Apr-13 15:46N 40°34' E 014°15'620.0
2018-Apr-13 15:29N 40°35' E 014°23'5 2.9
2018-Apr-13 13:45N 40°37' E 014°28'5 3.5
2018-Apr-13 12:17N 40°35' E 014°22'4 1.8
2018-Apr-13 09:47N 40°36' E 014°28'4 4.6
2018-Apr-13 08:48N 40°35' E 014°22'  
Track history (hours):
 
Tides and Currents Weather Stations Pressure Air Temp Water Temp Dewpoint Dewpoint Depression Visibility Wind Speed Wind Dir Waves Ship Positions

Positano Jet

Last reported at 2018-Apr-22 16:34 UTC. Time now 2018-Apr-22 22:12 UTC.
Position N 40°37' E 014°29'.

Length 23 m; draft 2 m.

Type: Ship. MMSI: 247160800.

Date/timePositionNaut miles runAvg speedWind from/ knotsBaromVisibWave heightAir tempDewpointWater temp
2018-Apr-22 16:34N 40°37' E 014°29'222.7
2018-Apr-22 16:30N 40°36' E 014°27'1013.1
2018-Apr-22 15:45N 40°34' E 014°15'520.4
2018-Apr-22 15:30N 40°34' E 014°22'7 9.8
2018-Apr-22 14:49N 40°37' E 014°29'0 0.0
2018-Apr-22 14:24N 40°37' E 014°29'0 0.3
2018-Apr-22 13:50N 40°37' E 014°29'12 9.8
2018-Apr-22 12:37N 40°33' E 014°14'216.0
2018-Apr-22 12:30N 40°34' E 014°17'1014.0
2018-Apr-22 11:47N 40°37' E 014°29'0 0.0
2018-Apr-22 11:20N 40°37' E 014°29'0 0.0
2018-Apr-22 11:00N 40°37' E 014°29'0 0.0
2018-Apr-22 10:26N 40°37' E 014°29'0 0.3
2018-Apr-22 09:51N 40°37' E 014°29'1122.5
2018-Apr-22 09:22N 40°34' E 014°15'0 1.2
2018-Apr-22 09:00N 40°34' E 014°16'1110.0
2018-Apr-22 07:55N 40°37' E 014°29'0 0.0
2018-Apr-22 07:28N 40°37' E 014°29'1 1.3
2018-Apr-22 07:00N 40°37' E 014°30'1 0.0
2018-Apr-21 16:35N 40°37' E 014°29'222.9
2018-Apr-21 16:31N 40°36' E 014°27'910.5
2018-Apr-21 15:38N 40°34' E 014°16'520.6
2018-Apr-21 15:25N 40°34' E 014°22'715.4
2018-Apr-21 14:59N 40°38' E 014°29'0 0.6
2018-Apr-21 14:30N 40°37' E 014°29'0 0.3
2018-Apr-21 13:49N 40°38' E 014°29'721.4
2018-Apr-21 13:30N 40°34' E 014°21'5 5.6
2018-Apr-21 12:36N 40°34' E 014°15'522.7
2018-Apr-21 12:24N 40°34' E 014°21'712.3
2018-Apr-21 11:49N 40°37' E 014°29'0 0.0
2018-Apr-21 11:27N 40°37' E 014°29'0 0.0
2018-Apr-21 10:59N 40°37' E 014°29'0 0.0
2018-Apr-21 10:29N 40°37' E 014°29'0 0.5
2018-Apr-21 09:51N 40°37' E 014°29'1112.6
2018-Apr-21 09:01N 40°34' E 014°16'022.6
2018-Apr-21 09:00N 40°34' E 014°16'1112.0
2018-Apr-21 08:07N 40°37' E 014°29'0 0.0
2018-Apr-21 07:55N 40°37' E 014°29'0 0.0
2018-Apr-20 16:35N 40°37' E 014°29'121.1
2018-Apr-20 16:30N 40°36' E 014°28'1011.9
2018-Apr-20 15:39N 40°33' E 014°15'518.9
2018-Apr-20 15:24N 40°34' E 014°21'712.8
2018-Apr-20 14:50N 40°37' E 014°29'0 0.0
2018-Apr-20 14:20N 40°37' E 014°29'0 0.2
2018-Apr-20 13:53N 40°37' E 014°29'12 9.2
2018-Apr-20 12:36N 40°33' E 014°15'217.6
2018-Apr-20 12:31N 40°34' E 014°17'1015.8
2018-Apr-20 11:52N 40°37' E 014°29'3 1.7
2018-Apr-20 10:10N 40°36' E 014°33'310.8
2018-Apr-20 09:53N 40°37' E 014°29'1113.5
2018-Apr-20 09:05N 40°34' E 014°15'423.2
2018-Apr-20 08:54N 40°34' E 014°21'7 8.8
2018-Apr-20 08:05N 40°37' E 014°29'0 0.0
2018-Apr-20 07:52N 40°37' E 014°29'0 0.0
2018-Apr-20 07:29N 40°37' E 014°29'0 0.0
2018-Apr-19 16:45N 40°37' E 014°29'2 7.2
2018-Apr-19 16:30N 40°36' E 014°27'1013.3
2018-Apr-19 15:44N 40°33' E 014°14'619.6
2018-Apr-19 15:27N 40°34' E 014°22'711.6
2018-Apr-19 14:53N 40°37' E 014°29'0 0.0
2018-Apr-19 14:30N 40°37' E 014°29'0 0.4
2018-Apr-19 13:52N 40°37' E 014°29'1022.4
2018-Apr-19 13:25N 40°34' E 014°16'2 3.9
2018-Apr-19 13:00N 40°33' E 014°14'2 3.4
2018-Apr-19 12:30N 40°34' E 014°17'10 4.9
2018-Apr-19 10:24N 40°37' E 014°29'0 0.5
2018-Apr-19 09:53N 40°37' E 014°29'1122.6
2018-Apr-19 09:23N 40°34' E 014°15'4 8.5
2018-Apr-19 08:53N 40°34' E 014°21'7 5.3
2018-Apr-19 07:28N 40°37' E 014°29'0 0.0
2018-Apr-18 16:53N 40°37' E 014°29'2 4.9
2018-Apr-18 16:30N 40°36' E 014°27'1015.8
2018-Apr-18 15:51N 40°33' E 014°14'719.5
2018-Apr-18 15:30N 40°35' E 014°23'5 7.2
2018-Apr-18 14:46N 40°37' E 014°29'0 0.0
2018-Apr-18 14:30N 40°37' E 014°29'0 0.0
2018-Apr-18 14:00N 40°37' E 014°29'612.3
2018-Apr-18 13:31N 40°34' E 014°22'610.2
2018-Apr-18 12:55N 40°33' E 014°14'1 3.6
2018-Apr-18 12:31N 40°34' E 014°16'1114.2
2018-Apr-18 11:46N 40°37' E 014°29'0 0.0
2018-Apr-18 11:18N 40°37' E 014°29'0 0.0
2018-Apr-18 10:57N 40°37' E 014°29'0 0.0
2018-Apr-18 10:30N 40°37' E 014°29'0 0.3
2018-Apr-18 09:50N 40°37' E 014°29'1122.3
2018-Apr-18 09:20N 40°34' E 014°15'510.4
2018-Apr-18 08:51N 40°34' E 014°21'7 7.3
2018-Apr-18 07:55N 40°37' E 014°29'0 0.0
2018-Apr-17 16:47N 40°37' E 014°29'2 7.1
2018-Apr-17 16:31N 40°36' E 014°27'1017.1
2018-Apr-17 15:55N 40°33' E 014°14'512.6
2018-Apr-17 15:30N 40°34' E 014°21'711.3
2018-Apr-17 14:53N 40°37' E 014°29'0 0.0
2018-Apr-17 14:30N 40°37' E 014°29'0 0.3
2018-Apr-17 13:51N 40°37' E 014°29'1021.8
2018-Apr-17 13:24N 40°34' E 014°17'2 3.0
2018-Apr-17 12:41N 40°33' E 014°14'210.0
2018-Apr-17 12:30N 40°34' E 014°17'1016.2
2018-Apr-17 11:53N 40°37' E 014°29'3 1.7
2018-Apr-17 10:15N 40°36' E 014°33'3 9.1
2018-Apr-17 09:56N 40°37' E 014°29'1122.4
2018-Apr-17 09:26N 40°34' E 014°15'4 7.9
2018-Apr-17 08:55N 40°34' E 014°21'7 9.7
2018-Apr-17 08:09N 40°37' E 014°29'0 0.0
2018-Apr-17 07:55N 40°37' E 014°29'0 0.0
2018-Apr-17 07:30N 40°37' E 014°29'0 0.0
2018-Apr-16 16:34N 40°37' E 014°29'123.2
2018-Apr-16 16:30N 40°36' E 014°28'1013.7
2018-Apr-16 15:45N 40°33' E 014°14'516.6
2018-Apr-16 15:26N 40°34' E 014°21'7 5.0
2018-Apr-16 14:01N 40°37' E 014°29'0 0.7
2018-Apr-16 14:00N 40°37' E 014°29'613.0
2018-Apr-16 13:30N 40°34' E 014°22'5 5.0
2018-Apr-16 12:32N 40°34' E 014°15'123.8
2018-Apr-16 12:30N 40°34' E 014°17'1016.6
2018-Apr-16 11:53N 40°37' E 014°29'0 0.0
2018-Apr-16 11:30N 40°37' E 014°29'0 0.0
2018-Apr-16 10:58N 40°37' E 014°29'0 0.0
2018-Apr-16 10:22N 40°37' E 014°29'0 0.4
2018-Apr-16 09:50N 40°37' E 014°29'722.6
2018-Apr-16 09:30N 40°34' E 014°21'4 7.9
2018-Apr-16 09:00N 40°34' E 014°15'1122.8
2018-Apr-16 08:30N 40°37' E 014°29'0 0.4
2018-Apr-16 07:59N 40°37' E 014°29'0 0.0
2018-Apr-15 16:46N 40°37' E 014°29'2 6.2
2018-Apr-15 16:31N 40°36' E 014°28'1117.0
2018-Apr-15 15:53N 40°33' E 014°14'510.7
2018-Apr-15 15:26N 40°34' E 014°21'713.5
2018-Apr-15 14:54N 40°37' E 014°29'0 0.0
2018-Apr-15 14:30N 40°37' E 014°29'0 0.0
2018-Apr-15 14:00N 40°37' E 014°29'612.7
2018-Apr-15 13:31N 40°34' E 014°22'6 6.8
2018-Apr-15 12:38N 40°33' E 014°14'215.9
2018-Apr-15 12:30N 40°34' E 014°17'1014.8
2018-Apr-15 11:50N 40°37' E 014°29'0 0.0
2018-Apr-15 11:30N 40°37' E 014°29'0 0.0
2018-Apr-15 10:59N 40°37' E 014°29'0 0.0
2018-Apr-15 10:30N 40°37' E 014°29'0 0.3
2018-Apr-15 09:51N 40°37' E 014°29'1122.1
2018-Apr-15 09:22N 40°34' E 014°16'0 0.8
2018-Apr-15 09:00N 40°34' E 014°16'1113.3
2018-Apr-15 08:13N 40°37' E 014°29'0 0.1
2018-Apr-15 08:00N 40°37' E 014°29'0 0.0
2018-Apr-14 16:46N 40°37' E 014°29'2 6.6
2018-Apr-14 16:31N 40°36' E 014°27'1020.5
2018-Apr-14 16:00N 40°33' E 014°14'5 8.9
2018-Apr-14 15:28N 40°34' E 014°21'711.4
2018-Apr-14 14:49N 40°37' E 014°29'0 0.0
2018-Apr-14 14:29N 40°37' E 014°29'0 0.0
2018-Apr-14 14:00N 40°37' E 014°29'611.8
2018-Apr-14 13:31N 40°34' E 014°23'610.0
2018-Apr-14 12:52N 40°33' E 014°14'2 6.3
2018-Apr-14 12:31N 40°34' E 014°17'1015.5
2018-Apr-14 11:53N 40°37' E 014°29'1 0.3
2018-Apr-14 09:48N 40°37' E 014°29'1117.2
2018-Apr-14 09:08N 40°33' E 014°14'620.7
2018-Apr-14 08:51N 40°34' E 014°22'6 0.3
2018-Apr-13 16:33N 40°37' E 014°28'123.3
2018-Apr-13 16:30N 40°36' E 014°28'1012.8
2018-Apr-13 15:46N 40°34' E 014°15'620.0
2018-Apr-13 15:29N 40°35' E 014°23'5 2.9
2018-Apr-13 13:45N 40°37' E 014°28'5 3.5
2018-Apr-13 12:17N 40°35' E 014°22'4 1.8
2018-Apr-13 09:47N 40°36' E 014°28'4 4.6
2018-Apr-13 08:48N 40°35' E 014°22'  

Dump ship's entire track history